createdAt,value
2023-10-23T00:01:38.000Z,96654.03
2023-10-23T00:04:04.605Z,96647.41
2023-10-23T00:06:31.271Z,96637.38
2023-10-23T00:08:57.757Z,96630.28
2023-10-23T00:11:24.190Z,96629.22
2023-10-23T00:13:50.637Z,96630.81
2023-10-23T00:16:17.140Z,96631.56
2023-10-23T00:18:43.664Z,96645.41
2023-10-23T00:21:10.150Z,96644.09
2023-10-23T00:23:36.701Z,96642.06
2023-10-23T00:26:03.127Z,96634.34
2023-10-23T00:28:29.542Z,96637.44
2023-10-23T00:30:56.090Z,96642.13
2023-10-23T00:33:22.716Z,96626.97
2023-10-23T00:35:49.252Z,96627.13
2023-10-23T00:38:15.712Z,96634.25
2023-10-23T00:40:42.220Z,96635.75
2023-10-23T00:43:08.785Z,96638.47
2023-10-23T00:45:35.350Z,96632.03
2023-10-23T00:48:01.829Z,96628.91
2023-10-23T00:50:28.292Z,96634.91
2023-10-23T00:52:54.760Z,96629.41
2023-10-23T00:55:21.235Z,96616.44
2023-10-23T00:57:47.711Z,96605.34
2023-10-23T01:00:14.315Z,96605.03
2023-10-23T01:02:40.923Z,96618.44
2023-10-23T01:05:07.420Z,96604.66
2023-10-23T01:07:33.855Z,96613.03
2023-10-23T01:10:03.431Z,96621.22
2023-10-23T01:12:29.925Z,96620.44
2023-10-23T01:14:56.401Z,96610.09
2023-10-23T01:17:22.963Z,96603.34
2023-10-23T01:22:33.392Z,96606.56
2023-10-23T01:25:00.028Z,96597.75
2023-10-23T01:27:26.518Z,96606.38
2023-10-23T01:29:52.969Z,96610.47
2023-10-23T01:32:19.424Z,96605.16
2023-10-23T01:34:45.963Z,96602.16
2023-10-23T01:37:12.421Z,96598.38
2023-10-23T01:39:38.881Z,96591.13
2023-10-23T01:42:05.362Z,96587.53
2023-10-23T01:44:31.816Z,96584.16
2023-10-23T01:46:58.249Z,96596.75
2023-10-23T01:49:24.678Z,96589.25
2023-10-23T01:51:51.165Z,96585.03
2023-10-23T01:54:17.727Z,96583.41
2023-10-23T01:56:44.185Z,96588.97
2023-10-23T01:59:10.645Z,96586.00
2023-10-23T02:01:37.155Z,96570.41
2023-10-23T02:04:03.857Z,96576.63
2023-10-23T02:06:30.442Z,96564.00
2023-10-23T02:08:56.938Z,96561.19
2023-10-23T02:11:23.387Z,96567.09
2023-10-23T02:13:49.856Z,96576.13
2023-10-23T02:16:16.370Z,96566.19
2023-10-23T02:18:42.929Z,96565.63
2023-10-23T02:21:09.517Z,96556.56
2023-10-23T02:23:48.799Z,96555.84
2023-10-23T02:26:20.050Z,96569.66
2023-10-23T02:28:46.483Z,96572.38
2023-10-23T02:31:13.113Z,96570.81
2023-10-23T02:33:39.615Z,96561.81
2023-10-23T02:36:06.169Z,96581.44
2023-10-23T02:38:32.660Z,96572.13
2023-10-23T02:40:59.121Z,96560.28
2023-10-23T02:43:25.611Z,96552.69
2023-10-23T02:45:52.225Z,96549.84
2023-10-23T02:48:18.877Z,96551.38
2023-10-23T02:50:45.355Z,96553.16
2023-10-23T02:53:11.797Z,96560.22
2023-10-23T02:55:38.265Z,96556.47
2023-10-23T02:58:04.768Z,96561.75
2023-10-23T03:00:31.270Z,96553.81
2023-10-23T03:02:57.927Z,96552.69
2023-10-23T03:05:24.431Z,96563.84
2023-10-23T03:07:50.878Z,96554.38
2023-10-23T03:10:17.348Z,96559.94
2023-10-23T03:12:43.833Z,96569.69
2023-10-23T03:15:10.302Z,96594.13
2023-10-23T03:17:36.846Z,96582.09
2023-10-23T03:20:03.354Z,96586.66
2023-10-23T03:22:29.810Z,96574.31
2023-10-23T03:24:56.260Z,96570.81
2023-10-23T03:27:22.717Z,96559.88
2023-10-23T03:29:49.225Z,96554.41
2023-10-23T03:32:15.650Z,96542.41
2023-10-23T03:34:42.144Z,96534.78
2023-10-23T03:37:08.591Z,96537.59
2023-10-23T03:39:35.246Z,96541.69
2023-10-23T03:42:02.451Z,96540.88
2023-10-23T03:44:28.922Z,96540.13
2023-10-23T03:46:55.407Z,96525.91
2023-10-23T03:49:21.859Z,96530.78
2023-10-23T03:51:48.364Z,96528.22
2023-10-23T03:54:14.895Z,96516.28
2023-10-23T03:56:41.400Z,96515.44
2023-10-23T03:59:07.863Z,96513.41
2023-10-23T04:01:34.395Z,96502.31
2023-10-23T04:04:00.989Z,96499.13
2023-10-23T04:06:27.502Z,96505.00
2023-10-23T04:08:54.028Z,96496.72
2023-10-23T04:11:20.468Z,96504.09
2023-10-23T04:13:46.950Z,96501.22
2023-10-23T04:16:13.824Z,96500.31
2023-10-23T04:18:40.459Z,96506.13
2023-10-23T04:21:07.044Z,96495.50
2023-10-23T04:23:33.484Z,96490.78
2023-10-23T04:25:59.943Z,96479.84
2023-10-23T04:28:26.412Z,96477.84
2023-10-23T04:30:53.048Z,96474.13
2023-10-23T04:33:19.567Z,96476.97
2023-10-23T04:35:47.663Z,96478.00
2023-10-23T04:38:15.175Z,96473.41
2023-10-23T04:40:41.647Z,96479.75
2023-10-23T04:43:08.062Z,96466.56
2023-10-23T04:45:34.559Z,96459.56
2023-10-23T04:48:01.065Z,96461.38
2023-10-23T04:50:27.541Z,96456.09
2023-10-23T04:52:53.960Z,96456.22
2023-10-23T04:55:20.451Z,96445.28
2023-10-23T04:57:47.021Z,96434.94
2023-10-23T05:00:13.530Z,96433.69
2023-10-23T05:02:40.041Z,96437.34
2023-10-23T05:05:06.536Z,96441.66
2023-10-23T05:07:33.391Z,96450.97
2023-10-23T05:09:59.926Z,96444.56
2023-10-23T05:12:26.609Z,96450.38
2023-10-23T05:14:53.107Z,96459.13
2023-10-23T05:17:19.609Z,96453.34
2023-10-23T05:19:46.043Z,96460.03
2023-10-23T05:22:12.489Z,96453.06
2023-10-23T05:24:39.024Z,96454.69
2023-10-23T05:27:05.452Z,96467.41
2023-10-23T05:29:31.890Z,96468.44
2023-10-23T05:31:58.407Z,96471.75
2023-10-23T05:34:24.858Z,96475.16
2023-10-23T05:36:51.355Z,96468.09
2023-10-23T05:39:17.847Z,96462.28
2023-10-23T05:41:44.289Z,96456.09
2023-10-23T05:44:10.738Z,96449.63
2023-10-23T05:46:37.254Z,96453.91
2023-10-23T05:49:03.788Z,96461.41
2023-10-23T05:51:30.295Z,96463.03
2023-10-23T05:53:56.824Z,96476.66
2023-10-23T05:56:23.238Z,96461.44
2023-10-23T05:58:49.691Z,96467.50
2023-10-23T06:01:16.199Z,96464.34
2023-10-23T06:03:42.709Z,96466.06
2023-10-23T06:06:09.219Z,96441.94
2023-10-23T06:08:35.671Z,96423.72
2023-10-23T06:11:02.142Z,96416.91
2023-10-23T06:13:28.594Z,96423.91
2023-10-23T06:15:55.161Z,96428.75
2023-10-23T06:18:24.833Z,96416.88
2023-10-23T06:20:51.355Z,96413.06
2023-10-23T06:23:17.805Z,96419.56
2023-10-23T06:25:44.281Z,96413.03
2023-10-23T06:28:10.723Z,96409.22
2023-10-23T06:30:37.174Z,96410.00
2023-10-23T06:33:03.745Z,96414.84
2023-10-23T06:35:30.233Z,96408.50
2023-10-23T06:37:58.057Z,96399.00
2023-10-23T06:40:24.600Z,96404.88
2023-10-23T06:42:51.023Z,96412.25
2023-10-23T06:45:17.583Z,96417.66
2023-10-23T06:47:44.176Z,96416.41
2023-10-23T06:50:10.691Z,96423.06
2023-10-23T06:52:37.135Z,96422.56
2023-10-23T06:55:03.588Z,96420.97
2023-10-23T06:57:30.019Z,96424.22
2023-10-23T06:59:56.492Z,96436.09
2023-10-23T07:02:23.072Z,96425.41
2023-10-23T07:04:49.577Z,96428.22
2023-10-23T07:07:28.529Z,96435.78
2023-10-23T07:09:55.930Z,96446.59
2023-10-23T07:12:22.461Z,96454.75
2023-10-23T07:14:49.038Z,96442.47
2023-10-23T07:17:15.541Z,96432.66
2023-10-23T07:19:42.000Z,96442.69
2023-10-23T07:22:08.453Z,96454.81
2023-10-23T07:24:34.919Z,96444.19
2023-10-23T07:27:01.432Z,96445.94
2023-10-23T07:29:27.975Z,96436.22
2023-10-23T07:31:54.528Z,96432.88
2023-10-23T07:34:21.004Z,96443.84
2023-10-23T07:36:47.567Z,96436.47
2023-10-23T07:39:14.055Z,96435.16
2023-10-23T07:41:40.510Z,96435.97
2023-10-23T07:44:06.999Z,96452.31
2023-10-23T07:46:33.645Z,96452.38
2023-10-23T07:49:00.581Z,96455.44
2023-10-23T07:51:27.093Z,96462.38
2023-10-23T07:53:53.529Z,96461.94
2023-10-23T07:56:20.030Z,96429.66
2023-10-23T07:58:46.510Z,96429.06
2023-10-23T08:01:13.096Z,96432.97
2023-10-23T08:03:39.952Z,96483.81
2023-10-23T08:06:06.793Z,96502.63
2023-10-23T08:08:33.377Z,96480.13
2023-10-23T08:10:59.838Z,96465.03
2023-10-23T08:13:26.270Z,96455.31
2023-10-23T08:15:53.995Z,96450.72
2023-10-23T08:18:36.727Z,96447.81
2023-10-23T08:21:08.087Z,96451.44
2023-10-23T08:23:34.760Z,96431.06
2023-10-23T08:26:01.249Z,96418.34
2023-10-23T08:28:30.437Z,96395.88
2023-10-23T08:31:01.583Z,96390.38
2023-10-23T08:33:28.328Z,96377.03
2023-10-23T08:35:54.883Z,96372.47
2023-10-23T08:38:21.341Z,96378.09
2023-10-23T08:40:47.824Z,96391.66
2023-10-23T08:43:14.406Z,96378.06
2023-10-23T08:45:41.048Z,96384.00
2023-10-23T08:48:07.552Z,96359.91
2023-10-23T08:50:34.016Z,96367.41
2023-10-23T08:53:11.666Z,96352.94
2023-10-23T08:55:38.147Z,96370.91
2023-10-23T08:58:04.719Z,96375.19
2023-10-23T09:00:31.243Z,96380.25
2023-10-23T09:02:57.797Z,96370.09
2023-10-23T09:05:24.445Z,96368.47
2023-10-23T09:07:51.041Z,96351.63
2023-10-23T09:10:17.663Z,96360.19
2023-10-23T09:12:44.202Z,96351.06
2023-10-23T09:15:10.665Z,96346.75
2023-10-23T09:17:37.156Z,96358.81
2023-10-23T09:20:03.770Z,96353.75
2023-10-23T09:22:30.255Z,96369.19
2023-10-23T09:24:56.751Z,96369.22
2023-10-23T09:27:23.368Z,96358.81
2023-10-23T09:29:49.944Z,96355.09
2023-10-23T09:32:16.454Z,96346.22
2023-10-23T09:34:42.926Z,96359.38
2023-10-23T09:37:09.418Z,96351.56
2023-10-23T09:39:35.931Z,96342.63
2023-10-23T09:42:02.369Z,96340.63
2023-10-23T09:44:28.909Z,96339.78
2023-10-23T09:46:55.383Z,96339.53
2023-10-23T09:49:22.199Z,96351.84
2023-10-23T09:51:48.838Z,96335.78
2023-10-23T09:54:15.381Z,96324.50
2023-10-23T09:56:41.811Z,96329.00
2023-10-23T09:59:08.276Z,96328.75
2023-10-23T10:01:34.814Z,96331.97
2023-10-23T10:04:01.525Z,96332.13
2023-10-23T10:06:28.027Z,96313.34
2023-10-23T10:08:54.486Z,96318.84
2023-10-23T10:11:20.941Z,96320.00
2023-10-23T10:13:47.418Z,96322.09
2023-10-23T10:16:13.968Z,96326.47
2023-10-23T10:18:40.476Z,96315.66
2023-10-23T10:21:06.943Z,96315.53
2023-10-23T10:23:33.409Z,96309.47
2023-10-23T10:25:59.853Z,96312.75
2023-10-23T10:28:26.419Z,96304.44
2023-10-23T10:30:52.996Z,96296.88
2023-10-23T10:34:25.693Z,96286.56
2023-10-23T10:36:06.067Z,96287.56
2023-10-23T10:38:32.788Z,96281.72
2023-10-23T10:40:59.323Z,96277.88
2023-10-23T10:43:25.801Z,96277.78
2023-10-23T10:45:52.259Z,96283.91
2023-10-23T10:48:18.760Z,96273.66
2023-10-23T10:50:45.198Z,96268.28
2023-10-23T10:53:11.783Z,96256.66
2023-10-23T10:55:38.281Z,96263.59
2023-10-23T10:58:04.845Z,96255.31
2023-10-23T11:00:31.357Z,96242.91
2023-10-23T11:02:57.915Z,96242.94
2023-10-23T11:05:24.518Z,96235.81
2023-10-23T11:07:50.947Z,96237.69
2023-10-23T11:10:17.421Z,96227.06
2023-10-23T11:12:43.934Z,96224.81
2023-10-23T11:15:10.511Z,96215.84
2023-10-23T11:17:37.027Z,96220.44
2023-10-23T11:20:03.482Z,96214.41
2023-10-23T11:22:29.942Z,96197.53
2023-10-23T11:24:56.507Z,96190.22
2023-10-23T11:27:23.006Z,96189.22
2023-10-23T11:29:49.444Z,96175.94
2023-10-23T11:32:16.161Z,96188.28
2023-10-23T11:34:42.662Z,96185.78
2023-10-23T11:37:09.272Z,96166.47
2023-10-23T11:39:35.765Z,96160.56
2023-10-23T11:42:02.299Z,96165.69
2023-10-23T11:44:28.878Z,96158.97
2023-10-23T11:46:55.398Z,96151.94
2023-10-23T11:49:22.051Z,96143.28
2023-10-23T11:51:48.684Z,96139.69
2023-10-23T11:54:15.243Z,96139.34
2023-10-23T11:56:41.699Z,96144.22
2023-10-23T11:59:08.144Z,96140.94
2023-10-23T12:01:34.752Z,96131.47
2023-10-23T12:04:01.384Z,96137.59
2023-10-23T12:06:27.912Z,96124.34
2023-10-23T12:08:56.146Z,96111.59
2023-10-23T12:11:23.934Z,96111.13
2023-10-23T12:13:50.601Z,96104.94
2023-10-23T12:16:17.207Z,96097.28
2023-10-23T12:18:43.740Z,96102.41
2023-10-23T12:21:10.283Z,96103.06
2023-10-23T12:23:36.739Z,96096.81
2023-10-23T12:26:03.208Z,96101.16
2023-10-23T12:28:29.777Z,96091.97
2023-10-23T12:30:56.372Z,96083.75
2023-10-23T12:33:28.422Z,96087.97
2023-10-23T12:35:59.142Z,96083.41
2023-10-23T12:38:25.617Z,96083.63
2023-10-23T12:40:52.166Z,96080.78
2023-10-23T12:43:18.721Z,96082.78
2023-10-23T12:45:45.323Z,96091.16
2023-10-23T12:48:11.875Z,96093.94
2023-10-23T12:50:38.390Z,96074.34
2023-10-23T12:53:04.835Z,96079.13
2023-10-23T12:55:31.589Z,96082.69
2023-10-23T12:57:58.064Z,96080.09
2023-10-23T13:00:24.567Z,96073.66
2023-10-23T13:02:51.131Z,96084.84
2023-10-23T13:05:17.690Z,96070.88
2023-10-23T13:07:44.207Z,96065.19
2023-10-23T13:10:10.810Z,96074.47
2023-10-23T13:12:37.408Z,96087.84
2023-10-23T13:15:03.969Z,96070.09
2023-10-23T13:17:30.526Z,96080.22
2023-10-23T13:19:57.047Z,96059.28
2023-10-23T13:22:23.581Z,96050.00
2023-10-23T13:24:50.125Z,96032.25
2023-10-23T13:27:16.846Z,96028.88
2023-10-23T13:29:43.371Z,96039.53
2023-10-23T13:32:09.894Z,96032.97
2023-10-23T13:34:36.375Z,96039.34
2023-10-23T13:37:03.332Z,96041.19
2023-10-23T13:39:29.827Z,96025.44
2023-10-23T13:41:56.347Z,96029.34
2023-10-23T13:44:22.831Z,96013.75
2023-10-23T13:46:49.434Z,96022.22
2023-10-23T13:49:16.126Z,96025.94
2023-10-23T13:51:42.844Z,96020.09
2023-10-23T13:54:09.347Z,96030.06
2023-10-23T13:56:35.850Z,96025.31
2023-10-23T13:59:02.321Z,96017.69
2023-10-23T14:01:28.847Z,96017.44
2023-10-23T14:03:55.474Z,96017.69
2023-10-23T14:06:22.231Z,96022.06
2023-10-23T14:09:39.012Z,96022.22
2023-10-23T14:12:01.131Z,96023.47
2023-10-23T14:14:21.560Z,96039.78
2023-10-23T14:16:48.021Z,96039.06
2023-10-23T14:19:20.063Z,96037.69
2023-10-23T14:21:52.819Z,96028.66
2023-10-23T14:24:19.373Z,96023.16
2023-10-23T14:26:45.930Z,96008.16
2023-10-23T14:29:12.385Z,96013.41
2023-10-23T14:31:38.940Z,96024.66
2023-10-23T14:34:05.558Z,96009.47
2023-10-23T14:36:32.071Z,96021.53
2023-10-23T14:38:58.632Z,96034.38
2023-10-23T14:41:25.102Z,96032.59
2023-10-23T14:43:51.587Z,96028.53
2023-10-23T14:46:18.092Z,96021.50
2023-10-23T14:48:44.582Z,96018.56
2023-10-23T14:51:11.052Z,96029.22
2023-10-23T14:53:37.584Z,96006.00
2023-10-23T14:56:04.021Z,96003.31
2023-10-23T14:58:31.178Z,95987.69
2023-10-23T15:00:58.873Z,96011.34
2023-10-23T15:03:25.417Z,96028.00
2023-10-23T15:05:51.853Z,96025.00
2023-10-23T15:08:18.359Z,96004.75
2023-10-23T15:10:44.824Z,96011.38
2023-10-23T15:13:11.316Z,95995.81
2023-10-23T15:15:37.860Z,96011.34
2023-10-23T15:18:04.381Z,95999.06
2023-10-23T15:20:30.846Z,95983.53
2023-10-23T15:22:57.547Z,95995.03
2023-10-23T15:25:25.308Z,95997.34
2023-10-23T15:27:51.820Z,95994.94
2023-10-23T15:30:18.397Z,96008.44
2023-10-23T15:32:44.888Z,96009.81
2023-10-23T15:35:11.580Z,96000.78
2023-10-23T15:37:38.035Z,96004.44
2023-10-23T15:40:04.575Z,96005.13
2023-10-23T15:42:31.055Z,96002.66
2023-10-23T15:44:57.576Z,96018.63
2023-10-23T15:47:24.185Z,96008.50
2023-10-23T15:49:50.692Z,96006.56
2023-10-23T15:52:17.133Z,96014.00
2023-10-23T15:54:43.618Z,96015.06
2023-10-23T15:57:10.766Z,96006.56
2023-10-23T15:59:43.848Z,96006.81
2023-10-23T16:02:10.384Z,96007.31
2023-10-23T16:04:40.829Z,96011.31
2023-10-23T16:07:08.926Z,96033.47
2023-10-23T16:09:35.433Z,96030.72
2023-10-23T16:12:10.077Z,96021.63
2023-10-23T16:14:53.540Z,96022.63
2023-10-23T16:17:22.917Z,96001.09
2023-10-23T16:19:49.402Z,96003.03
2023-10-23T16:22:15.894Z,96003.50
2023-10-23T16:24:42.601Z,95993.75
2023-10-23T16:27:09.229Z,95988.13
2023-10-23T16:29:35.727Z,95995.16
2023-10-23T16:32:02.288Z,96007.91
2023-10-23T16:34:28.914Z,96011.78
2023-10-23T16:36:55.556Z,96002.94
2023-10-23T16:39:22.093Z,96001.75
2023-10-23T16:41:48.522Z,96005.47
2023-10-23T16:44:14.980Z,96009.06
2023-10-23T16:46:41.477Z,96006.56
2023-10-23T16:49:07.969Z,96008.16
2023-10-23T16:51:34.461Z,96017.09
2023-10-23T16:54:00.898Z,96011.03
2023-10-23T16:56:27.338Z,96022.75
2023-10-23T16:58:53.854Z,96014.19
2023-10-23T17:01:20.423Z,96005.31
2023-10-23T17:03:46.993Z,95998.38
2023-10-23T17:06:13.683Z,96005.13
2023-10-23T17:08:40.184Z,96006.56
2023-10-23T17:11:06.625Z,96005.38
2023-10-23T17:13:33.753Z,96013.34
2023-10-23T17:16:00.397Z,96001.66
2023-10-23T17:18:26.879Z,95998.41
2023-10-23T17:20:53.339Z,96016.78
2023-10-23T17:23:19.846Z,96024.16
2023-10-23T17:25:46.281Z,96039.19
2023-10-23T17:28:12.741Z,96028.75
2023-10-23T17:30:39.220Z,96030.06
2023-10-23T17:33:05.727Z,96046.06
2023-10-23T17:35:32.238Z,96053.28
2023-10-23T17:38:00.442Z,96044.66
2023-10-23T17:40:27.462Z,96037.78
2023-10-23T17:42:53.977Z,96020.88
2023-10-23T17:45:20.420Z,96055.66
2023-10-23T17:47:46.908Z,96075.00
2023-10-23T17:50:13.413Z,96083.69
2023-10-23T17:52:40.040Z,96062.41
2023-10-23T17:55:06.658Z,96067.41
2023-10-23T17:57:33.146Z,96083.69
2023-10-23T17:59:59.633Z,96090.34
2023-10-23T18:02:26.103Z,96096.09
2023-10-23T18:04:52.581Z,96092.88
2023-10-23T18:07:19.111Z,96101.47
2023-10-23T18:09:45.628Z,96127.69
2023-10-23T18:12:26.750Z,96166.59
2023-10-23T18:14:57.982Z,96150.56
2023-10-23T18:17:24.420Z,96174.56
2023-10-23T18:19:50.981Z,96152.06
2023-10-23T18:22:17.518Z,96125.44
2023-10-23T18:24:44.102Z,96162.38
2023-10-23T18:27:10.649Z,96188.22
2023-10-23T18:29:37.113Z,96194.38
2023-10-23T18:32:03.599Z,96175.94
2023-10-23T18:34:30.176Z,96161.88
2023-10-23T18:36:56.653Z,96168.03
2023-10-23T18:39:23.193Z,96182.22
2023-10-23T18:41:49.829Z,96188.41
2023-10-23T18:44:16.392Z,96175.25
2023-10-23T18:46:42.919Z,96166.72
2023-10-23T18:49:09.453Z,96140.28
2023-10-23T18:51:35.918Z,96155.38
2023-10-23T18:54:02.392Z,96160.41
2023-10-23T18:56:28.860Z,96150.78
2023-10-23T18:58:55.336Z,96144.19
2023-10-23T19:01:21.917Z,96154.50
2023-10-23T19:03:48.521Z,96131.38
2023-10-23T19:06:14.964Z,96146.59
2023-10-23T19:08:41.407Z,96153.72
2023-10-23T19:11:07.892Z,96139.84
2023-10-23T19:13:34.460Z,96127.78
2023-10-23T19:16:01.054Z,96149.81
2023-10-23T19:18:30.333Z,96116.00
2023-10-23T19:20:57.789Z,96067.91
2023-10-23T19:23:24.246Z,96081.28
2023-10-23T19:25:50.780Z,96105.09
2023-10-23T19:28:17.366Z,96100.91
2023-10-23T19:30:43.853Z,96105.59
2023-10-23T19:33:10.374Z,96110.97
2023-10-23T19:35:36.823Z,96120.44
2023-10-23T19:38:03.267Z,96120.84
2023-10-23T19:40:29.893Z,96125.03
2023-10-23T19:42:56.378Z,96113.25
2023-10-23T19:45:22.835Z,96116.72
2023-10-23T19:47:49.339Z,96121.41
2023-10-23T19:50:15.853Z,96124.53
2023-10-23T19:52:42.444Z,96149.19
2023-10-23T19:55:45.211Z,96169.09
2023-10-23T19:57:55.367Z,96185.88
2023-10-23T20:00:21.826Z,96187.22
2023-10-23T20:02:48.335Z,96186.91
2023-10-23T20:05:14.829Z,96186.13
2023-10-23T20:07:41.385Z,96171.91
2023-10-23T20:10:07.881Z,96146.09
2023-10-23T20:12:34.485Z,96149.69
2023-10-23T20:15:00.956Z,96184.50
2023-10-23T20:17:27.448Z,96171.88
2023-10-23T20:19:53.994Z,96206.97
2023-10-23T20:22:20.566Z,96162.81
2023-10-23T20:24:47.106Z,96136.19
2023-10-23T20:27:13.545Z,96119.31
2023-10-23T20:29:40.134Z,96091.69
2023-10-23T20:32:06.833Z,96111.28
2023-10-23T20:34:33.391Z,96108.81
2023-10-23T20:36:59.986Z,96129.25
2023-10-23T20:39:26.642Z,96172.91
2023-10-23T20:41:53.071Z,96199.44
2023-10-23T20:44:19.550Z,96212.31
2023-10-23T20:46:46.099Z,96220.66
2023-10-23T20:49:12.672Z,96198.34
2023-10-23T20:51:39.137Z,96183.56
2023-10-23T20:54:05.575Z,96182.19
2023-10-23T20:56:32.042Z,96185.38
2023-10-23T20:58:58.532Z,96203.44
2023-10-23T21:01:25.041Z,96200.78
2023-10-23T21:03:51.594Z,96191.34
2023-10-23T21:06:18.106Z,96181.56
2023-10-23T21:08:44.548Z,96221.13
2023-10-23T21:11:11.017Z,96207.91
2023-10-23T21:13:37.521Z,96243.13
2023-10-23T21:16:04.056Z,96257.84
2023-10-23T21:18:30.511Z,96273.41
2023-10-23T21:20:56.981Z,96268.81
2023-10-23T21:23:23.468Z,96283.28
2023-10-23T21:25:49.928Z,96260.53
2023-10-23T21:28:16.385Z,96248.69
2023-10-23T21:30:42.903Z,96227.34
2023-10-23T21:33:09.375Z,96222.22
2023-10-23T21:35:35.872Z,96210.75
2023-10-23T21:38:02.312Z,96289.88
2023-10-23T21:40:28.809Z,96254.28
2023-10-23T21:42:55.286Z,96198.59
2023-10-23T21:45:21.728Z,96177.16
2023-10-23T21:47:48.228Z,96213.31
2023-10-23T21:50:14.752Z,96146.41
2023-10-23T21:52:41.246Z,96140.63
2023-10-23T21:55:18.288Z,96142.50
2023-10-23T21:57:45.746Z,96164.34
2023-10-23T22:00:12.233Z,96185.53
2023-10-23T22:02:38.778Z,96103.34
2023-10-23T22:05:05.329Z,96129.97
2023-10-23T22:07:31.946Z,96164.28
2023-10-23T22:09:58.427Z,96162.25
2023-10-23T22:12:24.913Z,96065.44
2023-10-23T22:14:51.378Z,96089.53
2023-10-23T22:17:17.874Z,96092.97
2023-10-23T22:19:44.430Z,96129.63
2023-10-23T22:22:11.050Z,96095.66
2023-10-23T22:24:37.577Z,96116.25
2023-10-23T22:27:04.092Z,96107.69
2023-10-23T22:29:30.534Z,96039.84
2023-10-23T22:31:57.073Z,96076.28
2023-10-23T22:34:23.583Z,96085.38
2023-10-23T22:37:55.708Z,96091.22
2023-10-23T22:39:36.525Z,96105.13
2023-10-23T22:42:02.991Z,96105.91
2023-10-23T22:44:29.427Z,96110.44
2023-10-23T22:46:55.973Z,96091.59
2023-10-23T22:49:22.500Z,96075.03
2023-10-23T22:51:48.950Z,96075.28
2023-10-23T22:54:15.432Z,96080.34
2023-10-23T22:56:41.870Z,96087.63
2023-10-23T22:59:08.305Z,96091.13
2023-10-23T23:01:34.905Z,96070.47
2023-10-23T23:04:01.417Z,96054.94
2023-10-23T23:06:27.893Z,96046.63
2023-10-23T23:08:54.335Z,96056.00
2023-10-23T23:11:20.801Z,96053.16
2023-10-23T23:13:47.263Z,96049.13
2023-10-23T23:16:13.740Z,96055.34
2023-10-23T23:18:40.246Z,96061.97
2023-10-23T23:21:06.692Z,96071.25
2023-10-23T23:23:33.093Z,96065.28
2023-10-23T23:25:59.545Z,96055.22
2023-10-23T23:28:26.065Z,96053.38
2023-10-23T23:30:52.561Z,96047.16
2023-10-23T23:33:18.999Z,96067.78
2023-10-23T23:35:45.472Z,96059.69
2023-10-23T23:38:11.890Z,96063.09
2023-10-23T23:40:38.371Z,96062.88
2023-10-23T23:43:04.803Z,96061.19
2023-10-23T23:45:31.265Z,96055.22
2023-10-23T23:47:57.736Z,96060.13
2023-10-23T23:50:24.211Z,96063.44
2023-10-23T23:52:50.653Z,96065.88
2023-10-23T23:55:17.122Z,96060.59
2023-10-23T23:57:43.605Z,96074.75
